Terminal Aerodrome Forecast
Issued by NWS

Home | Current Version | Previous Version | Text Only | Print | Product List | Glossary On
Versions: 1 2 3 4 5 6 7 8 9 10 11 12 13 14 15 16 17 18 19 20
000
FTUS43 KMKX 010520
TAFUES
TAF
KUES 010520Z 0106/0206 VRB03KT P6SM VCSH OVC100
     FM010900 15006KT 5SM -SHRA VCTS OVC060CB
      TEMPO 0109/0111 3SM -TSRA BKN040CB OVC060
     FM011100 VRB03KT P6SM -SHRA VCTS OVC030CB
     FM011600 24005KT P6SM VCSH SCT040 BKN080
     FM012000 24008KT P6SM BKN250
     FM020200 27006KT P6SM FEW250=

USA.gov is the U.S. government's official web portal to all federal, state and local government web resources and services.